Time;durP1;ratioP1;P1;durP2;ratioP2;P2;SDS_P1;SDS_P2;PMS_P1;PMS_P2;Temp;Humidity;BMP_temperature;BMP_pressure;BME280_temperature;BME280_humidity;BME280_pressure;Samples;Min_cycle;Max_cycle;Signal;HPM_P1;HPM_P2
2021/11/21 00:00:01;;;;;;;27.33;17.60;;;9.10;99.90;;;;;;5009212;28;20207;-35
2021/11/21 00:02:26;;;;;;;26.60;17.63;;;9.10;99.90;;;;;;5026811;28;20274;-36
2021/11/21 00:04:52;;;;;;;26.20;17.00;;;9.00;99.90;;;;;;5020454;28;20183;-36
2021/11/21 00:07:17;;;;;;;23.07;17.77;;;9.20;99.90;;;;;;5012127;28;20238;-35
2021/11/21 00:09:43;;;;;;;25.30;17.83;;;9.00;99.90;;;;;;5007945;28;20195;-35
2021/11/21 00:12:09;;;;;;;25.77;17.93;;;9.00;99.90;;;;;;5016628;28;20278;-36
2021/11/21 00:14:35;;;;;;;25.77;18.07;;;9.10;99.90;;;;;;5008982;28;20183;-35
2021/11/21 00:17:02;;;;;;;26.10;17.13;;;9.00;99.90;;;;;;5015405;28;20186;-36
2021/11/21 00:19:28;;;;;;;27.50;18.70;;;9.00;99.90;;;;;;5020988;28;20603;-35
2021/11/21 00:21:53;;;;;;;25.60;17.93;;;9.00;99.90;;;;;;5023883;28;20517;-35
2021/11/21 00:24:21;;;;;;;27.30;19.37;;;9.10;99.90;;;;;;5014323;28;20202;-35
2021/11/21 00:26:47;;;;;;;25.43;18.70;;;9.10;99.90;;;;;;5011356;28;20179;-36
2021/11/21 00:29:12;;;;;;;26.47;18.27;;;9.10;99.90;;;;;;5008575;28;20476;-35
2021/11/21 00:31:38;;;;;;;27.03;19.13;;;9.10;99.90;;;;;;5008724;28;20195;-35
2021/11/21 00:34:04;;;;;;;25.50;18.20;;;9.00;99.90;;;;;;5015391;28;20199;-35
2021/11/21 00:36:30;;;;;;;29.63;18.63;;;9.20;99.90;;;;;;5025226;28;20483;-36
2021/11/21 00:38:56;;;;;;;28.67;19.83;;;9.10;99.90;;;;;;5008451;28;20488;-36
2021/11/21 00:41:22;;;;;;;28.73;18.90;;;9.10;99.90;;;;;;5012900;28;20425;-35
2021/11/21 00:43:48;;;;;;;28.73;19.20;;;9.00;99.90;;;;;;5013772;28;20179;-35
2021/11/21 00:46:14;;;;;;;27.17;19.23;;;9.00;99.90;;;;;;5028048;28;20490;-36
2021/11/21 00:48:40;;;;;;;30.50;21.03;;;9.10;99.90;;;;;;5019736;28;20544;-35
2021/11/21 00:51:07;;;;;;;28.60;18.97;;;9.00;99.90;;;;;;5021694;28;20654;-35
2021/11/21 00:53:33;;;;;;;30.17;20.07;;;8.70;99.90;;;;;;5011309;28;20430;-35
2021/11/21 00:56:07;;;;;;;27.13;18.53;;;8.90;99.90;;;;;;5009294;28;20944;-36
2021/11/21 00:58:34;;;;;;;32.50;20.20;;;8.80;99.90;;;;;;5013533;28;20493;-36
2021/11/21 01:01:01;;;;;;;26.07;18.43;;;8.70;99.90;;;;;;5011123;28;20445;-36
2021/11/21 01:03:27;;;;;;;29.30;19.57;;;8.70;99.90;;;;;;5021856;28;20426;-36
2021/11/21 01:05:55;;;;;;;30.63;20.50;;;8.90;99.90;;;;;;5017023;28;20470;-35
2021/11/21 01:08:22;;;;;;;29.50;19.47;;;8.70;99.90;;;;;;5024190;28;20922;-35
2021/11/21 01:10:59;;;;;;;31.30;21.67;;;8.70;99.90;;;;;;5008182;28;20429;-35
2021/11/21 01:13:25;;;;;;;28.10;20.10;;;8.70;99.90;;;;;;5024153;28;20775;-35
2021/11/21 01:15:52;;;;;;;29.50;19.27;;;8.70;99.90;;;;;;5027708;28;20509;-36
2021/11/21 01:18:18;;;;;;;28.37;18.70;;;8.70;99.90;;;;;;5023302;28;20887;-35
2021/11/21 01:20:45;;;;;;;30.70;20.37;;;8.90;99.90;;;;;;5025955;28;20428;-36
2021/11/21 01:23:12;;;;;;;27.63;19.50;;;8.60;99.90;;;;;;5017116;28;20418;-35
2021/11/21 01:25:40;;;;;;;30.63;18.83;;;8.70;99.90;;;;;;5007626;28;20949;-36
2021/11/21 01:28:06;;;;;;;30.37;19.70;;;8.70;99.90;;;;;;5019993;28;20418;-36
2021/11/21 01:30:32;;;;;;;30.83;19.47;;;8.70;99.90;;;;;;5008050;28;20487;-36
2021/11/21 01:33:00;;;;;;;26.03;17.80;;;8.80;99.90;;;;;;5007927;28;20446;-36
2021/11/21 01:35:27;;;;;;;30.20;19.03;;;8.80;99.90;;;;;;5010060;28;20425;-35
2021/11/21 01:37:53;;;;;;;28.90;18.30;;;8.80;99.90;;;;;;5017434;28;20418;-36
2021/11/21 01:40:20;;;;;;;31.60;17.87;;;8.70;99.90;;;;;;5007605;28;20804;-36
2021/11/21 01:42:47;;;;;;;25.93;18.83;;;8.80;99.90;;;;;;5014356;28;20422;-36
2021/11/21 01:45:13;;;;;;;25.37;18.53;;;8.70;99.90;;;;;;5018813;28;20432;-35
2021/11/21 01:47:41;;;;;;;27.43;18.17;;;8.90;99.90;;;;;;5027137;28;20422;-35
2021/11/21 01:50:12;;;;;;;29.10;19.13;;;8.80;99.90;;;;;;5016982;28;20433;-35
2021/11/21 01:52:38;;;;;;;27.03;18.30;;;8.50;99.90;;;;;;5022458;28;20828;-36
2021/11/21 01:55:05;;;;;;;25.37;17.30;;;8.40;99.90;;;;;;5014860;28;20426;-36
2021/11/21 01:57:31;;;;;;;25.70;17.83;;;8.60;99.90;;;;;;5011717;28;20203;-36
2021/11/21 02:00:01;;;;;;;26.57;17.27;;;8.70;99.90;;;;;;5007551;28;20462;-36
2021/11/21 02:02:27;;;;;;;24.93;16.00;;;8.60;99.90;;;;;;5007366;28;20187;-36
2021/11/21 02:04:53;;;;;;;24.17;17.00;;;8.50;99.90;;;;;;5013869;28;20919;-36
2021/11/21 02:07:18;;;;;;;25.93;17.70;;;8.90;99.90;;;;;;5022104;28;20445;-36
2021/11/21 02:09:44;;;;;;;25.23;17.00;;;8.60;99.90;;;;;;5007597;28;20190;-35
2021/11/21 02:12:10;;;;;;;24.73;17.77;;;8.70;99.90;;;;;;5012860;28;20673;-36
2021/11/21 02:14:36;;;;;;;27.10;17.07;;;8.60;99.90;;;;;;5020870;28;20191;-36
2021/11/21 02:17:01;;;;;;;24.30;16.70;;;8.80;99.90;;;;;;5020327;28;20505;-35
2021/11/21 02:19:27;;;;;;;22.87;15.60;;;8.70;99.90;;;;;;5014016;28;20236;-36
2021/11/21 02:21:53;;;;;;;24.97;16.27;;;8.80;99.90;;;;;;5014667;28;20193;-35
2021/11/21 02:24:18;;;;;;;20.93;14.43;;;8.70;99.90;;;;;;5010375;28;20183;-35
2021/11/21 02:26:44;;;;;;;22.60;15.70;;;8.90;99.90;;;;;;5012648;28;20666;-35
2021/11/21 02:29:11;;;;;;;22.43;15.57;;;8.70;99.90;;;;;;5020126;28;20217;-36
2021/11/21 02:31:38;;;;;;;20.27;14.47;;;8.90;99.90;;;;;;5024766;28;20222;-35
2021/11/21 02:34:04;;;;;;;24.77;16.23;;;8.90;99.90;;;;;;5023489;28;20682;-35
2021/11/21 02:36:31;;;;;;;24.43;15.77;;;8.70;99.90;;;;;;5025629;28;20942;-35
2021/11/21 02:38:57;;;;;;;24.00;16.23;;;8.70;99.90;;;;;;5030222;28;20461;-35
2021/11/21 02:41:22;;;;;;;23.50;15.67;;;8.40;99.90;;;;;;5017651;28;20932;-35
2021/11/21 02:43:48;;;;;;;24.53;15.77;;;8.60;99.90;;;;;;5014458;28;20175;-35
2021/11/21 02:46:16;;;;;;;23.40;15.17;;;8.50;99.90;;;;;;5030266;28;20225;-35
2021/11/21 02:48:42;;;;;;;22.93;15.40;;;8.40;99.90;;;;;;5029258;28;20564;-35
2021/11/21 02:51:10;;;;;;;21.90;14.77;;;8.50;99.90;;;;;;5023026;28;20421;-36
2021/11/21 02:53:39;;;;;;;24.07;15.03;;;8.40;99.90;;;;;;5025725;28;20516;-35
2021/11/21 02:56:08;;;;;;;19.57;14.40;;;8.50;99.90;;;;;;5010463;28;20414;-36
2021/11/21 02:58:34;;;;;;;21.97;15.40;;;8.50;99.90;;;;;;5011129;28;20472;-35
2021/11/21 03:01:06;;;;;;;21.47;15.57;;;8.60;99.90;;;;;;5010596;28;20468;-35
2021/11/21 03:03:32;;;;;;;22.63;15.20;;;8.60;99.90;;;;;;5010772;28;20417;-36
2021/11/21 03:05:58;;;;;;;24.63;15.80;;;8.50;99.90;;;;;;5017788;28;20487;-35
2021/11/21 03:08:24;;;;;;;21.63;15.00;;;8.50;99.90;;;;;;5021387;28;20529;-36
2021/11/21 03:10:52;;;;;;;22.30;14.33;;;8.50;99.90;;;;;;5010409;28;21087;-35
2021/11/21 03:13:18;;;;;;;25.03;16.20;;;8.60;99.90;;;;;;5018234;28;20444;-36
2021/11/21 03:15:43;;;;;;;25.23;15.80;;;8.70;99.90;;;;;;5010351;28;20430;-36
2021/11/21 03:18:09;;;;;;;25.80;16.20;;;8.80;99.90;;;;;;5009195;28;20211;-35
2021/11/21 03:20:36;;;;;;;25.17;16.07;;;8.60;99.90;;;;;;5022248;28;20190;-36
2021/11/21 03:23:04;;;;;;;25.63;16.57;;;8.40;99.90;;;;;;5021578;28;20429;-35
2021/11/21 03:25:29;;;;;;;26.10;16.60;;;8.50;99.90;;;;;;5019547;28;20514;-36
2021/11/21 03:27:55;;;;;;;23.50;15.77;;;8.60;99.90;;;;;;5012890;28;20434;-35
2021/11/21 03:30:22;;;;;;;21.70;15.40;;;8.50;99.90;;;;;;5010024;28;20191;-35
2021/11/21 03:32:49;;;;;;;23.97;14.93;;;8.50;99.90;;;;;;5009109;28;20184;-36
2021/11/21 03:35:16;;;;;;;25.10;17.10;;;8.60;99.90;;;;;;5020113;28;20528;-36
2021/11/21 03:37:42;;;;;;;23.77;15.73;;;8.60;99.90;;;;;;5024322;28;20418;-36
2021/11/21 03:40:12;;;;;;;26.40;16.70;;;8.50;99.90;;;;;;5018049;28;20905;-35
2021/11/21 03:42:38;;;;;;;27.57;18.27;;;8.50;99.90;;;;;;5013746;28;20424;-36
2021/11/21 03:45:05;;;;;;;28.13;19.10;;;8.60;99.90;;;;;;5027842;28;20907;-35
2021/11/21 03:47:31;;;;;;;29.53;18.30;;;8.50;99.90;;;;;;5028837;28;20491;-36
2021/11/21 03:49:56;;;;;;;28.47;17.80;;;8.50;99.90;;;;;;5019087;28;20557;-35
2021/11/21 03:52:22;;;;;;;25.30;16.20;;;8.50;99.90;;;;;;5014678;28;20525;-35
2021/11/21 03:54:48;;;;;;;29.30;17.83;;;8.40;99.90;;;;;;5013111;28;20191;-35
2021/11/21 03:57:13;;;;;;;26.23;17.53;;;8.60;99.90;;;;;;5009510;28;20209;-35
2021/11/21 03:59:40;;;;;;;25.50;16.33;;;8.50;99.90;;;;;;5019772;28;20253;-35
2021/11/21 04:02:06;;;;;;;26.30;16.77;;;8.50;99.90;;;;;;5009321;28;20199;-35
2021/11/21 04:04:32;;;;;;;23.10;15.70;;;8.40;99.90;;;;;;5014220;28;20442;-35
2021/11/21 04:06:59;;;;;;;26.43;16.70;;;8.40;99.90;;;;;;5015083;28;20425;-36
2021/11/21 04:09:24;;;;;;;24.50;16.10;;;8.60;99.90;;;;;;5018240;28;20437;-35
2021/11/21 04:11:51;;;;;;;26.00;16.07;;;8.40;99.90;;;;;;5008114;28;20732;-36
2021/11/21 04:14:17;;;;;;;21.57;15.10;;;8.50;99.90;;;;;;5013045;28;20277;-35
2021/11/21 04:16:44;;;;;;;23.47;13.97;;;8.40;99.90;;;;;;5009105;28;20521;-35
2021/11/21 04:19:10;;;;;;;20.10;13.27;;;8.60;99.90;;;;;;5007964;28;20466;-35
2021/11/21 04:21:36;;;;;;;22.70;15.27;;;8.60;99.90;;;;;;5017546;28;20422;-35
2021/11/21 04:24:03;;;;;;;22.30;13.67;;;8.50;99.90;;;;;;5024061;28;20846;-35
2021/11/21 04:26:28;;;;;;;22.13;14.70;;;8.50;99.90;;;;;;5012021;28;20437;-35
2021/11/21 04:28:55;;;;;;;20.03;12.93;;;8.30;99.90;;;;;;5010707;28;20438;-35
2021/11/21 04:31:20;;;;;;;24.60;14.93;;;8.50;99.90;;;;;;5007644;28;20202;-35
2021/11/21 04:33:46;;;;;;;18.20;12.97;;;8.70;99.90;;;;;;5008010;28;20437;-35
2021/11/21 04:36:12;;;;;;;20.47;12.83;;;8.70;99.90;;;;;;5016838;28;20209;-35
2021/11/21 04:38:37;;;;;;;21.57;13.20;;;8.80;99.90;;;;;;5019138;28;20210;-36
2021/11/21 04:41:03;;;;;;;22.27;13.50;;;8.60;99.90;;;;;;5008956;28;20195;-35
2021/11/21 04:43:29;;;;;;;18.73;11.80;;;8.60;99.90;;;;;;5015713;28;20186;-36
2021/11/21 04:45:56;;;;;;;19.33;13.03;;;8.70;99.90;;;;;;5028379;28;20421;-36
2021/11/21 04:48:23;;;;;;;20.13;13.37;;;8.80;99.90;;;;;;5027603;28;20653;-36
2021/11/21 04:50:49;;;;;;;19.40;12.97;;;8.70;99.90;;;;;;5023946;28;20920;-36
2021/11/21 04:53:15;;;;;;;20.63;13.43;;;8.70;99.90;;;;;;5017680;28;20428;-36
2021/11/21 04:55:41;;;;;;;21.70;13.83;;;8.50;99.90;;;;;;5009151;28;20477;-35
2021/11/21 04:58:07;;;;;;;21.97;14.80;;;8.70;99.90;;;;;;5010474;28;20440;-35
2021/11/21 05:00:33;;;;;;;27.90;16.60;;;8.50;99.90;;;;;;5017946;28;20733;-35
2021/11/21 05:02:59;;;;;;;25.43;15.27;;;8.50;99.90;;;;;;5027076;28;20716;-35
2021/11/21 05:05:25;;;;;;;24.37;15.47;;;8.50;99.90;;;;;;5013067;28;20430;-35
2021/11/21 05:07:52;;;;;;;25.07;17.00;;;8.60;99.90;;;;;;5024679;28;20182;-36
2021/11/21 05:10:19;;;;;;;26.23;16.00;;;8.60;99.90;;;;;;5019644;28;20433;-36
2021/11/21 05:12:45;;;;;;;25.10;15.53;;;8.50;99.90;;;;;;5007312;28;20426;-35
2021/11/21 05:15:14;;;;;;;25.03;15.60;;;8.60;99.90;;;;;;5020718;28;20425;-36
2021/11/21 05:17:40;;;;;;;27.53;16.37;;;8.30;99.90;;;;;;5023398;28;20532;-36
2021/11/21 05:20:06;;;;;;;27.17;16.50;;;8.40;99.90;;;;;;5009723;28;20548;-36
2021/11/21 05:22:32;;;;;;;22.63;14.63;;;8.30;99.90;;;;;;5020068;28;20216;-36
2021/11/21 05:24:58;;;;;;;26.73;16.37;;;8.40;99.90;;;;;;5014730;28;20951;-35
2021/11/21 05:27:24;;;;;;;25.70;16.33;;;8.50;99.90;;;;;;5006241;28;20462;-36
2021/11/21 05:29:53;;;;;;;24.20;15.33;;;8.50;99.90;;;;;;5019323;28;20468;-35
2021/11/21 05:32:20;;;;;;;27.10;16.80;;;8.60;99.90;;;;;;5007741;28;20488;-36
2021/11/21 05:34:46;;;;;;;24.53;15.97;;;8.80;99.90;;;;;;5010049;28;20528;-35
2021/11/21 05:37:13;;;;;;;27.70;17.00;;;8.50;99.90;;;;;;5025242;28;20517;-36
2021/11/21 05:39:39;;;;;;;24.60;15.97;;;8.50;99.90;;;;;;5015218;28;20527;-36
2021/11/21 05:42:05;;;;;;;28.07;16.53;;;8.80;99.90;;;;;;5007610;28;20473;-36
2021/11/21 05:44:31;;;;;;;26.30;17.63;;;8.70;99.90;;;;;;5020400;28;20555;-36
2021/11/21 05:46:57;;;;;;;24.23;15.90;;;8.60;99.90;;;;;;5027318;28;20696;-36
2021/11/21 05:49:22;;;;;;;28.30;18.57;;;8.60;99.90;;;;;;5021989;28;20198;-36
2021/11/21 05:51:48;;;;;;;24.80;16.27;;;8.60;99.90;;;;;;5020515;28;20709;-36
2021/11/21 05:54:14;;;;;;;23.60;16.30;;;8.60;99.90;;;;;;5019305;28;20264;-35
2021/11/21 05:56:39;;;;;;;27.87;17.00;;;8.70;99.90;;;;;;5014847;28;20254;-36
2021/11/21 05:59:05;;;;;;;23.03;15.03;;;8.80;99.90;;;;;;5010197;28;20818;-36
2021/11/21 06:01:31;;;;;;;26.33;16.70;;;8.80;99.90;;;;;;5007754;28;20198;-35
2021/11/21 06:03:57;;;;;;;26.27;16.40;;;8.70;99.90;;;;;;5019872;28;20186;-36
2021/11/21 06:06:23;;;;;;;25.70;16.20;;;8.50;99.90;;;;;;5019895;28;20217;-36
2021/11/21 06:08:49;;;;;;;27.57;16.50;;;8.50;99.90;;;;;;5021923;28;20426;-36
2021/11/21 06:11:15;;;;;;;26.00;15.80;;;8.50;99.90;;;;;;5016060;28;20601;-35
2021/11/21 06:13:42;;;;;;;28.53;17.03;;;8.50;99.90;;;;;;5007245;28;20426;-35
2021/11/21 06:16:08;;;;;;;24.43;16.20;;;8.50;99.90;;;;;;5007604;28;20517;-36
2021/11/21 06:18:34;;;;;;;25.73;16.60;;;8.40;99.90;;;;;;5005849;28;20556;-36
2021/11/21 06:21:00;;;;;;;30.53;17.67;;;8.60;99.90;;;;;;5007360;28;20617;-35
2021/11/21 06:23:26;;;;;;;22.63;15.90;;;8.50;99.90;;;;;;5008413;28;20946;-35
2021/11/21 06:25:52;;;;;;;27.93;17.63;;;8.60;99.90;;;;;;5009526;28;20513;-36
2021/11/21 06:28:19;;;;;;;32.00;18.87;;;8.50;99.90;;;;;;5007552;28;20508;-36
2021/11/21 06:30:45;;;;;;;27.83;17.77;;;8.30;99.90;;;;;;5014637;28;20466;-36
2021/11/21 06:33:11;;;;;;;31.43;18.40;;;8.40;99.90;;;;;;5006288;28;20480;-36
2021/11/21 06:35:38;;;;;;;27.97;17.27;;;8.50;99.90;;;;;;5011791;28;20703;-35
2021/11/21 06:38:04;;;;;;;30.53;18.40;;;8.40;99.90;;;;;;5019607;28;20426;-36
2021/11/21 06:40:30;;;;;;;24.47;16.00;;;8.50;99.90;;;;;;5015073;28;20426;-36
2021/11/21 06:42:56;;;;;;;27.00;17.10;;;8.40;99.90;;;;;;5006398;28;20425;-36
2021/11/21 06:45:21;;;;;;;28.33;17.13;;;8.40;99.90;;;;;;5023380;28;20181;-35
2021/11/21 06:47:47;;;;;;;27.40;17.40;;;8.60;99.90;;;;;;5026589;28;20185;-36
2021/11/21 06:50:14;;;;;;;28.43;19.33;;;8.50;99.90;;;;;;5015505;28;20473;-35
2021/11/21 06:52:41;;;;;;;29.27;16.83;;;8.60;99.90;;;;;;5016350;28;20270;-36
2021/11/21 06:55:09;;;;;;;30.40;17.70;;;8.50;99.90;;;;;;5015911;28;20484;-35
2021/11/21 06:57:35;;;;;;;33.23;17.40;;;8.50;99.90;;;;;;5006864;28;20612;-35
2021/11/21 07:00:14;;;;;;;25.40;16.70;;;8.60;99.90;;;;;;5020123;28;20477;-36
2021/11/21 07:02:40;;;;;;;27.50;18.70;;;8.50;99.90;;;;;;5006630;28;20448;-36
2021/11/21 07:05:06;;;;;;;31.30;16.97;;;8.60;99.90;;;;;;5006234;28;20457;-38
2021/11/21 07:07:32;;;;;;;30.00;18.03;;;8.50;99.90;;;;;;5018151;28;20184;-36
2021/11/21 07:09:57;;;;;;;28.27;18.43;;;8.50;99.90;;;;;;5018720;28;20474;-36
2021/11/21 07:12:23;;;;;;;32.63;18.70;;;8.30;99.90;;;;;;5010997;28;20626;-36
2021/11/21 07:14:49;;;;;;;29.80;19.10;;;8.30;99.90;;;;;;5017890;28;20193;-36
2021/11/21 07:17:15;;;;;;;26.37;16.33;;;8.60;99.90;;;;;;5010441;28;20201;-35
2021/11/21 07:19:40;;;;;;;24.00;15.37;;;8.50;99.90;;;;;;5009224;28;20289;-36
2021/11/21 07:22:06;;;;;;;25.07;15.63;;;8.30;99.90;;;;;;5024252;28;20190;-36
2021/11/21 07:24:33;;;;;;;20.33;12.73;;;8.40;99.90;;;;;;5024169;28;20210;-36
2021/11/21 07:26:59;;;;;;;19.07;12.10;;;8.60;99.90;;;;;;5021107;28;20203;-35
2021/11/21 07:29:29;;;;;;;16.43;10.57;;;8.40;99.90;;;;;;5014471;28;20528;-36
2021/11/21 07:32:03;;;;;;;18.47;11.37;;;8.60;99.90;;;;;;5010136;28;20414;-36
2021/11/21 07:34:30;;;;;;;18.43;11.07;;;8.60;99.90;;;;;;5009109;28;20418;-36
2021/11/21 07:36:56;;;;;;;19.37;12.83;;;8.60;99.90;;;;;;5018974;28;20496;-36
2021/11/21 07:39:22;;;;;;;15.30;11.13;;;8.60;99.90;;;;;;5025840;28;20458;-35
2021/11/21 07:41:48;;;;;;;15.13;10.10;;;8.70;99.90;;;;;;5017266;28;20438;-35
2021/11/21 07:44:14;;;;;;;14.33;9.97;;;8.90;99.90;;;;;;5013047;28;20801;-36
2021/11/21 07:46:40;;;;;;;14.10;10.00;;;8.80;99.90;;;;;;5029439;28;20432;-35
2021/11/21 07:49:06;;;;;;;14.43;9.33;;;8.60;99.90;;;;;;5026262;28;20430;-36
2021/11/21 07:51:31;;;;;;;15.70;10.87;;;8.70;99.90;;;;;;5011612;28;20452;-36
2021/11/21 07:53:57;;;;;;;13.47;9.20;;;8.70;99.90;;;;;;5024099;28;20191;-36
2021/11/21 07:56:23;;;;;;;14.07;9.77;;;8.50;99.90;;;;;;5014314;28;20214;-36
2021/11/21 07:58:49;;;;;;;11.10;8.13;;;8.50;99.90;;;;;;5009301;28;20203;-36
2021/11/21 08:01:16;;;;;;;10.67;7.20;;;8.60;99.90;;;;;;5019592;28;20418;-36
2021/11/21 08:03:42;;;;;;;11.00;7.80;;;8.60;99.90;;;;;;5008474;28;20191;-36
2021/11/21 08:06:07;;;;;;;11.90;7.70;;;8.50;99.90;;;;;;5013434;28;20441;-36
2021/11/21 08:08:33;;;;;;;11.60;7.80;;;8.60;99.90;;;;;;5018709;28;20426;-36
2021/11/21 08:10:59;;;;;;;9.67;7.27;;;8.50;99.90;;;;;;5016308;28;20187;-36
2021/11/21 08:13:26;;;;;;;9.60;6.60;;;8.50;99.90;;;;;;5008248;28;20638;-36
2021/11/21 08:15:53;;;;;;;9.20;7.23;;;8.60;99.90;;;;;;5009199;28;20206;-36
2021/11/21 08:18:19;;;;;;;8.07;6.47;;;8.50;99.90;;;;;;5006381;28;20433;-36
2021/11/21 08:20:45;;;;;;;10.50;7.77;;;8.80;99.90;;;;;;5010960;28;20839;-36
2021/11/21 08:23:10;;;;;;;8.80;6.77;;;8.60;99.90;;;;;;5018272;28;20422;-36
2021/11/21 08:25:36;;;;;;;11.67;8.17;;;8.60;99.90;;;;;;5022024;28;20265;-35
2021/11/21 08:28:03;;;;;;;9.80;7.50;;;8.50;99.90;;;;;;5011819;28;20191;-36
2021/11/21 08:30:30;;;;;;;12.00;7.90;;;8.70;99.90;;;;;;5011588;28;20199;-35
2021/11/21 08:32:56;;;;;;;10.03;7.40;;;8.70;99.90;;;;;;5008076;28;20855;-36
2021/11/21 08:35:22;;;;;;;10.87;8.10;;;8.60;99.90;;;;;;5009078;28;20430;-36
2021/11/21 08:37:48;;;;;;;11.70;8.40;;;8.60;99.90;;;;;;5017420;28;20191;-36
2021/11/21 08:40:14;;;;;;;10.00;7.67;;;8.80;99.90;;;;;;5022271;28;20213;-36
2021/11/21 08:42:40;;;;;;;11.60;8.50;;;8.60;99.90;;;;;;5011531;28;20262;-36
2021/11/21 08:45:08;;;;;;;11.17;9.03;;;8.60;99.90;;;;;;5023014;28;20412;-35
2021/11/21 08:47:35;;;;;;;12.13;9.37;;;8.70;99.90;;;;;;5017273;28;20425;-36
2021/11/21 08:50:03;;;;;;;12.53;9.30;;;8.60;99.90;;;;;;5032222;28;20521;-36
2021/11/21 08:52:29;;;;;;;14.37;10.03;;;8.70;99.90;;;;;;5034070;28;20498;-36
2021/11/21 08:54:55;;;;;;;15.83;10.10;;;8.70;99.90;;;;;;5032895;28;20421;-36
2021/11/21 08:57:21;;;;;;;13.27;10.80;;;8.80;99.90;;;;;;5034642;28;20668;-36
2021/11/21 08:59:46;;;;;;;18.00;12.30;;;8.80;99.90;;;;;;5022447;28;20312;-37
2021/11/21 09:02:12;;;;;;;15.00;11.70;;;8.60;99.90;;;;;;5034124;28;20415;-36
2021/11/21 09:04:38;;;;;;;15.20;11.17;;;8.90;99.90;;;;;;5031992;28;20186;-36
2021/11/21 09:07:03;;;;;;;18.10;12.60;;;8.90;99.90;;;;;;5010609;28;20650;-36
2021/11/21 09:09:29;;;;;;;16.17;11.27;;;8.90;99.90;;;;;;5020583;28;20256;-36
2021/11/21 09:11:55;;;;;;;15.00;11.40;;;8.90;99.90;;;;;;5013157;28;20199;-36
2021/11/21 09:14:20;;;;;;;15.20;11.70;;;8.90;99.90;;;;;;5012505;28;20191;-36
2021/11/21 09:16:46;;;;;;;18.27;13.60;;;9.00;99.90;;;;;;5018822;28;20206;-36
2021/11/21 09:19:12;;;;;;;19.70;13.00;;;9.00;99.90;;;;;;5006303;28;20222;-36
2021/11/21 09:21:38;;;;;;;18.53;12.70;;;9.10;99.90;;;;;;5008460;28;20211;-36
2021/11/21 09:24:04;;;;;;;16.80;12.93;;;9.10;99.90;;;;;;5016796;28;20199;-35
2021/11/21 09:26:30;;;;;;;16.73;12.83;;;9.30;99.90;;;;;;5011265;28;20199;-36
2021/11/21 09:28:56;;;;;;;17.43;13.93;;;9.30;99.90;;;;;;5006865;28;20935;-36
2021/11/21 09:31:22;;;;;;;17.47;13.17;;;9.20;99.90;;;;;;5019527;28;20438;-36
2021/11/21 09:33:48;;;;;;;19.67;13.57;;;9.20;99.90;;;;;;5020187;28;20431;-36
2021/11/21 09:36:14;;;;;;;19.80;13.13;;;9.40;99.90;;;;;;5010722;28;20201;-36
2021/11/21 09:38:40;;;;;;;19.57;13.97;;;9.20;99.90;;;;;;5014601;28;20462;-37
2021/11/21 09:41:05;;;;;;;20.00;14.30;;;9.30;99.90;;;;;;5011940;28;20210;-36
2021/11/21 09:43:32;;;;;;;19.83;13.03;;;9.20;99.90;;;;;;5006241;28;20214;-36
2021/11/21 09:45:59;;;;;;;19.57;13.73;;;9.20;99.90;;;;;;5019856;28;20198;-36
2021/11/21 09:48:32;;;;;;;21.50;15.90;;;9.20;99.90;;;;;;5016916;28;20838;-35
2021/11/21 09:51:00;;;;;;;20.20;14.50;;;9.10;99.90;;;;;;5006665;28;20426;-36
2021/11/21 09:53:26;;;;;;;21.13;14.83;;;9.20;99.90;;;;;;5021150;28;20429;-36
2021/11/21 09:55:52;;;;;;;19.90;15.20;;;9.30;99.90;;;;;;5022993;28;20508;-36
2021/11/21 09:58:18;;;;;;;20.60;15.50;;;9.40;99.90;;;;;;5013592;28;20198;-37
2021/11/21 10:00:44;;;;;;;21.00;15.73;;;9.40;99.90;;;;;;5018727;28;20995;-38
2021/11/21 10:03:14;;;;;;;21.30;15.77;;;9.40;99.90;;;;;;5024640;28;20200;-36
2021/11/21 10:05:55;;;;;;;26.80;17.10;;;9.40;99.90;;;;;;5007176;28;20774;-36
2021/11/21 10:08:28;;;;;;;20.53;15.23;;;9.40;99.90;;;;;;5017706;28;20474;-36
2021/11/21 10:11:04;;;;;;;22.17;16.03;;;9.50;99.90;;;;;;5016006;28;20433;-36
2021/11/21 10:13:37;;;;;;;24.17;16.10;;;9.40;99.90;;;;;;5015784;28;20430;-36
2021/11/21 10:16:18;;;;;;;25.83;16.97;;;9.40;99.90;;;;;;5024404;28;20413;-36
2021/11/21 10:18:48;;;;;;;23.70;16.20;;;9.40;99.90;;;;;;5032358;28;20478;-36
2021/11/21 10:21:15;;;;;;;22.17;16.77;;;9.50;99.90;;;;;;5033067;28;20491;-36
2021/11/21 10:23:42;;;;;;;23.20;15.53;;;9.50;99.90;;;;;;5027445;28;20483;-36
2021/11/21 10:26:18;;;;;;;23.17;16.53;;;9.30;99.90;;;;;;5027364;28;20947;-36
2021/11/21 10:28:44;;;;;;;24.37;15.90;;;9.70;99.90;;;;;;5030463;28;20950;-36
2021/11/21 10:31:18;;;;;;;21.57;15.27;;;9.60;99.90;;;;;;5032998;28;20428;-36
2021/11/21 10:33:48;;;;;;;22.40;14.90;;;9.60;99.90;;;;;;5031655;28;20235;-36
2021/11/21 10:36:27;;;;;;;21.83;15.80;;;9.40;99.90;;;;;;5031848;28;20524;-36
2021/11/21 10:39:01;;;;;;;24.83;16.50;;;9.50;99.90;;;;;;5029247;28;20795;-36
2021/11/21 10:41:28;;;;;;;23.37;16.90;;;9.60;99.90;;;;;;5029344;28;20425;-36
2021/11/21 10:44:01;;;;;;;22.80;15.23;;;9.60;99.90;;;;;;5028403;28;20419;-36
2021/11/21 10:46:29;;;;;;;22.17;14.93;;;9.60;99.90;;;;;;5033915;28;20417;-36
2021/11/21 10:49:11;;;;;;;22.70;16.10;;;9.80;99.90;;;;;;5034387;28;20465;-36
2021/11/21 10:51:37;;;;;;;22.13;13.87;;;9.60;99.90;;;;;;5026635;28;20919;-36
2021/11/21 10:54:03;;;;;;;20.67;15.07;;;9.60;99.90;;;;;;5029125;28;20424;-36
2021/11/21 10:56:30;;;;;;;19.50;14.50;;;9.60;99.90;;;;;;5034214;28;20635;-36
2021/11/21 10:58:56;;;;;;;19.53;13.60;;;9.50;99.90;;;;;;5035294;28;20246;-36
2021/11/21 11:01:25;;;;;;;20.47;13.93;;;9.70;99.90;;;;;;5037558;28;20837;-36
2021/11/21 11:04:14;;;;;;;19.50;13.60;;;9.60;99.90;;;;;;5040372;28;20472;-36
2021/11/21 11:06:41;;;;;;;24.30;13.87;;;9.60;99.90;;;;;;5009244;28;20489;-36
2021/11/21 11:09:21;;;;;;;21.17;13.60;;;9.50;99.90;;;;;;5016990;28;20425;-36
2021/11/21 11:11:52;;;;;;;20.23;14.30;;;9.70;99.90;;;;;;5017348;28;20821;-36
2021/11/21 11:14:18;;;;;;;18.47;14.40;;;9.50;99.90;;;;;;5008942;28;20432;-36
2021/11/21 11:16:49;;;;;;;19.87;13.27;;;9.60;99.90;;;;;;5022146;28;20434;-36
2021/11/21 11:19:16;;;;;;;17.80;12.97;;;9.50;99.90;;;;;;5016527;28;20469;-36
2021/11/21 11:21:44;;;;;;;18.00;13.50;;;9.70;99.90;;;;;;5009100;28;20448;-36
2021/11/21 11:24:10;;;;;;;18.30;12.40;;;9.60;99.90;;;;;;5016838;28;20703;-36
2021/11/21 11:26:36;;;;;;;22.03;13.10;;;9.40;99.90;;;;;;5019204;28;20430;-36
2021/11/21 11:29:04;;;;;;;21.23;12.07;;;9.50;99.90;;;;;;5009725;28;20480;-36
2021/11/21 11:31:32;;;;;;;18.00;12.10;;;9.60;99.90;;;;;;5014460;28;20993;-36
2021/11/21 11:34:00;;;;;;;15.87;11.10;;;9.80;99.90;;;;;;5008224;28;20438;-36
2021/11/21 11:36:28;;;;;;;16.30;10.73;;;9.80;99.90;;;;;;5007597;28;20437;-36
2021/11/21 11:39:14;;;;;;;17.20;10.67;;;9.80;99.90;;;;;;5017849;28;20469;-36
2021/11/21 11:41:40;;;;;;;14.60;10.00;;;9.80;99.90;;;;;;5017444;28;20425;-37
2021/11/21 11:44:06;;;;;;;14.20;9.90;;;9.80;99.90;;;;;;5010372;28;20426;-36
2021/11/21 11:46:37;;;;;;;15.40;10.63;;;9.80;99.90;;;;;;5018225;28;20187;-37
2021/11/21 11:49:10;;;;;;;13.63;10.27;;;9.80;99.90;;;;;;5021864;28;20442;-36
2021/11/21 11:51:38;;;;;;;15.70;9.80;;;9.80;99.90;;;;;;5020611;28;20887;-36
2021/11/21 11:54:16;;;;;;;14.30;10.03;;;10.10;99.90;;;;;;5032762;28;20430;-36
2021/11/21 11:56:46;;;;;;;15.27;10.60;;;9.80;99.90;;;;;;5013865;28;20433;-36
2021/11/21 11:59:36;;;;;;;14.10;9.93;;;9.80;99.90;;;;;;5008543;28;20476;-36
2021/11/21 12:02:35;;;;;;;13.80;9.87;;;10.00;99.90;;;;;;5018403;28;20452;-36
2021/11/21 12:05:04;;;;;;;13.27;8.47;;;9.90;99.90;;;;;;5005737;28;20430;-36
2021/11/21 12:07:36;;;;;;;12.47;7.93;;;9.90;99.90;;;;;;5011046;28;20435;-36
2021/11/21 12:10:15;;;;;;;10.83;7.53;;;10.10;99.90;;;;;;5019726;28;20808;-36
2021/11/21 12:13:10;;;;;;;12.53;8.00;;;10.00;99.90;;;;;;5030543;28;20454;-36
2021/11/21 12:15:44;;;;;;;14.97;8.37;;;9.90;99.90;;;;;;5008353;28;20433;-36
2021/11/21 12:18:10;;;;;;;10.20;7.23;;;10.00;99.90;;;;;;5014978;28;20429;-36
2021/11/21 12:20:59;;;;;;;14.23;7.27;;;10.10;99.90;;;;;;5025310;28;21038;-36
2021/11/21 12:23:40;;;;;;;11.53;6.57;;;10.10;99.90;;;;;;5019709;28;20444;-36
2021/11/21 12:26:40;;;;;;;10.27;6.30;;;10.00;99.90;;;;;;5022739;28;20417;-36
2021/11/21 12:29:28;;;;;;;10.80;6.80;;;10.10;99.90;;;;;;5021002;28;20437;-37
2021/11/21 12:31:58;;;;;;;9.93;5.73;;;9.90;99.90;;;;;;5008171;28;20418;-36
2021/11/21 12:34:38;;;;;;;9.50;6.00;;;10.10;99.90;;;;;;5008322;28;20837;-36
2021/11/21 12:37:13;;;;;;;12.00;6.87;;;10.00;99.90;;;;;;5022443;28;20464;-36
2021/11/21 12:39:42;;;;;;;7.80;5.27;;;10.00;99.90;;;;;;5016043;28;20471;-36